sensor_id;sensor_type;location;lat;lon;timestamp;pressure;altitude;pressure_sealevel;temperature;humidity
6835;BME280;3455;42.150;24.734;2023-02-02T00:00:59;66130.41;;;7.07;43.92
6835;BME280;3455;42.150;24.734;2023-02-02T00:03:26;66121.88;;;7.39;43.59
6835;BME280;3455;42.150;24.734;2023-02-02T00:05:53;66159.03;;;7.46;43.18
6835;BME280;3455;42.150;24.734;2023-02-02T00:08:20;66162.38;;;7.44;43.17
6835;BME280;3455;42.150;24.734;2023-02-02T00:10:48;66169.66;;;7.35;42.91
6835;BME280;3455;42.150;24.734;2023-02-02T00:13:16;66147.25;;;7.26;42.92
6835;BME280;3455;42.150;24.734;2023-02-02T00:15:43;66167.53;;;7.31;43.03
6835;BME280;3455;42.150;24.734;2023-02-02T00:18:09;66180.94;;;7.65;42.43
6835;BME280;3455;42.150;24.734;2023-02-02T00:20:36;66207.28;;;8.02;41.41
6835;BME280;3455;42.150;24.734;2023-02-02T00:23:03;66213.91;;;7.99;41.87
6835;BME280;3455;42.150;24.734;2023-02-02T00:25:30;66179.34;;;7.68;42.62
6835;BME280;3455;42.150;24.734;2023-02-02T00:27:58;66250.81;;;8.14;41.95
6835;BME280;3455;42.150;24.734;2023-02-02T00:30:25;66252.25;;;8.24;41.61
6835;BME280;3455;42.150;24.734;2023-02-02T00:32:51;66266.53;;;8.14;42.55
6835;BME280;3455;42.150;24.734;2023-02-02T00:35:19;66227.81;;;7.87;42.49
6835;BME280;3455;42.150;24.734;2023-02-02T00:37:46;66235.91;;;7.76;43.13
6835;BME280;3455;42.150;24.734;2023-02-02T00:40:13;66187.00;;;7.62;43.24
6835;BME280;3455;42.150;24.734;2023-02-02T00:42:39;66170.50;;;7.45;43.38
6835;BME280;3455;42.150;24.734;2023-02-02T00:45:12;66188.69;;;7.99;42.58
6835;BME280;3455;42.150;24.734;2023-02-02T00:47:42;66198.66;;;7.76;42.93
6835;BME280;3455;42.150;24.734;2023-02-02T00:50:10;66213.53;;;8.14;41.85
6835;BME280;3455;42.150;24.734;2023-02-02T00:52:37;66192.75;;;7.49;43.15
6835;BME280;3455;42.150;24.734;2023-02-02T00:55:05;66233.53;;;7.80;43.15
6835;BME280;3455;42.150;24.734;2023-02-02T00:57:32;66230.63;;;7.96;42.76
6835;BME280;3455;42.150;24.734;2023-02-02T00:59:58;66224.28;;;8.08;42.31
6835;BME280;3455;42.150;24.734;2023-02-02T01:02:27;66238.94;;;8.01;41.89
6835;BME280;3455;42.150;24.734;2023-02-02T01:04:53;66193.31;;;7.67;42.35
6835;BME280;3455;42.150;24.734;2023-02-02T01:07:20;66179.41;;;7.79;41.93
6835;BME280;3455;42.150;24.734;2023-02-02T01:09:47;66153.59;;;7.50;42.61
6835;BME280;3455;42.150;24.734;2023-02-02T01:12:13;66179.22;;;7.64;43.24
6835;BME280;3455;42.150;24.734;2023-02-02T01:14:40;66192.94;;;7.65;42.66
6835;BME280;3455;42.150;24.734;2023-02-02T01:17:07;66204.69;;;7.91;42.42
6835;BME280;3455;42.150;24.734;2023-02-02T01:19:35;66181.75;;;7.93;42.49
6835;BME280;3455;42.150;24.734;2023-02-02T01:22:02;66170.94;;;7.40;43.30
6835;BME280;3455;42.150;24.734;2023-02-02T01:24:28;66181.78;;;7.75;43.62
6835;BME280;3455;42.150;24.734;2023-02-02T01:26:55;66181.28;;;7.86;42.93
6835;BME280;3455;42.150;24.734;2023-02-02T01:29:22;66219.97;;;7.77;43.14
6835;BME280;3455;42.150;24.734;2023-02-02T01:31:48;66212.03;;;7.93;43.35
6835;BME280;3455;42.150;24.734;2023-02-02T01:34:15;66169.28;;;7.50;43.80
6835;BME280;3455;42.150;24.734;2023-02-02T01:36:43;66167.91;;;7.33;43.83
6835;BME280;3455;42.150;24.734;2023-02-02T01:39:10;66168.13;;;7.31;44.46
6835;BME280;3455;42.150;24.734;2023-02-02T01:41:39;66132.72;;;7.09;44.41
6835;BME280;3455;42.150;24.734;2023-02-02T01:47:11;66108.50;;;7.23;44.31
6835;BME280;3455;42.150;24.734;2023-02-02T01:49:39;66123.78;;;7.28;44.28
6835;BME280;3455;42.150;24.734;2023-02-02T01:52:09;66154.00;;;7.10;45.32
6835;BME280;3455;42.150;24.734;2023-02-02T01:54:39;66184.97;;;7.51;45.03
6835;BME280;3455;42.150;24.734;2023-02-02T01:57:10;66143.75;;;7.59;44.14
6835;BME280;3455;42.150;24.734;2023-02-02T01:59:40;66167.41;;;7.26;44.64
6835;BME280;3455;42.150;24.734;2023-02-02T02:02:07;66176.97;;;7.55;43.96
6835;BME280;3455;42.150;24.734;2023-02-02T02:04:34;66194.56;;;7.62;44.12
6835;BME280;3455;42.150;24.734;2023-02-02T02:07:02;66191.47;;;7.61;45.24
6835;BME280;3455;42.150;24.734;2023-02-02T02:09:32;66208.59;;;7.54;45.13
6835;BME280;3455;42.150;24.734;2023-02-02T02:11:59;66166.81;;;7.44;45.19
6835;BME280;3455;42.150;24.734;2023-02-02T02:14:26;66123.34;;;7.14;45.45
6835;BME280;3455;42.150;24.734;2023-02-02T02:17:20;66114.28;;;6.92;45.81
6835;BME280;3455;42.150;24.734;2023-02-02T02:20:23;66130.81;;;7.02;46.31
6835;BME280;3455;42.150;24.734;2023-02-02T02:23:57;66123.34;;;7.14;46.27
6835;BME280;3455;42.150;24.734;2023-02-02T02:26:59;66160.06;;;7.24;46.18
6835;BME280;3455;42.150;24.734;2023-02-02T02:29:50;66178.91;;;7.36;46.04
6835;BME280;3455;42.150;24.734;2023-02-02T02:32:26;66169.56;;;7.06;46.25
6835;BME280;3455;42.150;24.734;2023-02-02T02:35:02;66144.44;;;6.99;47.52
6835;BME280;3455;42.150;24.734;2023-02-02T02:37:37;66164.94;;;7.19;46.87
6835;BME280;3455;42.150;24.734;2023-02-02T02:40:10;66120.88;;;7.25;46.16
6835;BME280;3455;42.150;24.734;2023-02-02T02:42:41;66148.41;;;7.27;46.24
6835;BME280;3455;42.150;24.734;2023-02-02T02:45:12;66139.31;;;6.88;47.86
6835;BME280;3455;42.150;24.734;2023-02-02T02:47:41;66127.94;;;7.00;46.80
6835;BME280;3455;42.150;24.734;2023-02-02T02:50:10;66112.47;;;6.97;47.03
6835;BME280;3455;42.150;24.734;2023-02-02T02:52:37;66141.31;;;6.98;47.36
6835;BME280;3455;42.150;24.734;2023-02-02T02:55:06;66108.81;;;6.96;46.91
6835;BME280;3455;42.150;24.734;2023-02-02T03:00:41;66115.16;;;6.84;47.84
6835;BME280;3455;42.150;24.734;2023-02-02T03:03:19;66283.22;;;6.90;47.28
6835;BME280;3455;42.150;24.734;2023-02-02T03:05:51;66134.00;;;6.96;47.20
6835;BME280;3455;42.150;24.734;2023-02-02T03:08:25;66117.31;;;6.99;47.03
6835;BME280;3455;42.150;24.734;2023-02-02T03:10:54;66098.16;;;6.60;47.80
6835;BME280;3455;42.150;24.734;2023-02-02T03:13:22;66102.91;;;6.69;47.49
6835;BME280;3455;42.150;24.734;2023-02-02T03:15:49;66155.34;;;6.73;47.18
6835;BME280;3455;42.150;24.734;2023-02-02T03:18:19;66131.97;;;6.86;47.22
6835;BME280;3455;42.150;24.734;2023-02-02T03:20:47;66126.78;;;6.81;47.11
6835;BME280;3455;42.150;24.734;2023-02-02T03:23:14;66171.94;;;7.19;45.94
6835;BME280;3455;42.150;24.734;2023-02-02T03:25:41;66180.22;;;7.42;45.37
6835;BME280;3455;42.150;24.734;2023-02-02T03:28:09;66116.72;;;7.17;45.73
6835;BME280;3455;42.150;24.734;2023-02-02T03:30:36;66167.25;;;7.39;45.70
6835;BME280;3455;42.150;24.734;2023-02-02T03:33:04;66201.31;;;7.45;45.18
6835;BME280;3455;42.150;24.734;2023-02-02T03:35:32;66138.16;;;7.40;45.26
6835;BME280;3455;42.150;24.734;2023-02-02T03:37:58;66154.59;;;7.28;45.33
6835;BME280;3455;42.150;24.734;2023-02-02T03:40:26;66180.06;;;7.37;45.45
6835;BME280;3455;42.150;24.734;2023-02-02T03:42:53;66124.34;;;7.28;45.30
6835;BME280;3455;42.150;24.734;2023-02-02T03:45:20;66170.22;;;7.35;45.33
6835;BME280;3455;42.150;24.734;2023-02-02T03:47:47;66155.81;;;7.05;45.94
6835;BME280;3455;42.150;24.734;2023-02-02T03:50:14;66202.19;;;7.55;45.49
6835;BME280;3455;42.150;24.734;2023-02-02T03:52:42;66206.16;;;7.65;45.03
6835;BME280;3455;42.150;24.734;2023-02-02T03:55:08;66203.84;;;7.63;44.62
6835;BME280;3455;42.150;24.734;2023-02-02T03:57:35;66195.63;;;7.51;44.64
6835;BME280;3455;42.150;24.734;2023-02-02T04:00:02;66151.13;;;7.25;44.37
6835;BME280;3455;42.150;24.734;2023-02-02T04:02:29;66106.06;;;6.98;45.48
6835;BME280;3455;42.150;24.734;2023-02-02T04:04:56;66153.16;;;7.18;45.20
6835;BME280;3455;42.150;24.734;2023-02-02T04:07:23;66169.00;;;7.41;45.31
6835;BME280;3455;42.150;24.734;2023-02-02T04:09:51;66187.94;;;7.47;45.04
6835;BME280;3455;42.150;24.734;2023-02-02T04:12:17;66044.59;;;7.20;45.67
6835;BME280;3455;42.150;24.734;2023-02-02T04:14:44;66135.00;;;7.29;45.82
6835;BME280;3455;42.150;24.734;2023-02-02T04:17:11;66114.84;;;7.11;45.75
6835;BME280;3455;42.150;24.734;2023-02-02T04:19:38;66164.81;;;7.15;45.65
6835;BME280;3455;42.150;24.734;2023-02-02T04:22:04;66129.81;;;7.24;45.18
6835;BME280;3455;42.150;24.734;2023-02-02T04:24:31;66154.88;;;7.37;45.05
6835;BME280;3455;42.150;24.734;2023-02-02T04:26:59;66149.84;;;7.37;45.64
6835;BME280;3455;42.150;24.734;2023-02-02T04:29:26;66163.78;;;7.36;45.04
6835;BME280;3455;42.150;24.734;2023-02-02T04:31:52;66136.00;;;7.25;45.46
6835;BME280;3455;42.150;24.734;2023-02-02T04:34:19;66137.72;;;7.27;45.18
6835;BME280;3455;42.150;24.734;2023-02-02T04:36:46;66149.97;;;7.24;45.76
6835;BME280;3455;42.150;24.734;2023-02-02T04:39:13;66113.69;;;7.10;45.93
6835;BME280;3455;42.150;24.734;2023-02-02T04:41:39;66133.16;;;7.05;45.79
6835;BME280;3455;42.150;24.734;2023-02-02T04:44:12;66138.03;;;7.18;46.06
6835;BME280;3455;42.150;24.734;2023-02-02T04:46:42;66146.94;;;7.17;46.29
6835;BME280;3455;42.150;24.734;2023-02-02T04:49:09;66134.63;;;6.90;46.35
6835;BME280;3455;42.150;24.734;2023-02-02T04:51:36;66109.94;;;6.79;46.71
6835;BME280;3455;42.150;24.734;2023-02-02T04:54:03;66133.41;;;6.96;46.56
6835;BME280;3455;42.150;24.734;2023-02-02T04:56:30;66131.41;;;7.03;45.86
6835;BME280;3455;42.150;24.734;2023-02-02T04:58:57;66159.25;;;7.08;46.07
6835;BME280;3455;42.150;24.734;2023-02-02T05:01:25;66149.34;;;7.12;46.68
6835;BME280;3455;42.150;24.734;2023-02-02T05:03:53;66098.44;;;6.69;46.43
6835;BME280;3455;42.150;24.734;2023-02-02T05:06:20;66103.31;;;6.65;47.17
6835;BME280;3455;42.150;24.734;2023-02-02T05:08:47;66110.63;;;6.91;46.21
6835;BME280;3455;42.150;24.734;2023-02-02T05:11:17;66124.72;;;6.77;47.07
6835;BME280;3455;42.150;24.734;2023-02-02T05:13:44;66101.63;;;6.81;46.60
6835;BME280;3455;42.150;24.734;2023-02-02T05:16:11;66121.38;;;6.60;47.18
6835;BME280;3455;42.150;24.734;2023-02-02T05:18:39;66139.16;;;6.83;46.84
6835;BME280;3455;42.150;24.734;2023-02-02T05:21:06;66130.69;;;6.98;46.52
6835;BME280;3455;42.150;24.734;2023-02-02T05:23:33;66117.00;;;6.90;46.36
6835;BME280;3455;42.150;24.734;2023-02-02T05:26:00;66126.53;;;6.90;46.30
6835;BME280;3455;42.150;24.734;2023-02-02T05:28:28;66079.97;;;6.59;47.25
6835;BME280;3455;42.150;24.734;2023-02-02T05:30:55;66061.31;;;6.27;47.70
6835;BME280;3455;42.150;24.734;2023-02-02T05:33:21;66077.84;;;6.37;47.56
6835;BME280;3455;42.150;24.734;2023-02-02T05:35:49;66056.72;;;6.41;47.85
6835;BME280;3455;42.150;24.734;2023-02-02T05:38:17;66070.22;;;6.44;47.45
6835;BME280;3455;42.150;24.734;2023-02-02T05:40:43;66067.78;;;6.55;47.81
6835;BME280;3455;42.150;24.734;2023-02-02T05:43:10;66050.53;;;6.22;47.59
6835;BME280;3455;42.150;24.734;2023-02-02T05:45:37;66073.41;;;6.38;47.75
6835;BME280;3455;42.150;24.734;2023-02-02T05:48:04;66010.56;;;6.13;47.75
6835;BME280;3455;42.150;24.734;2023-02-02T05:50:31;66044.50;;;6.26;47.78
6835;BME280;3455;42.150;24.734;2023-02-02T05:52:59;66112.25;;;6.63;46.87
6835;BME280;3455;42.150;24.734;2023-02-02T05:55:26;66077.28;;;6.55;47.35
6835;BME280;3455;42.150;24.734;2023-02-02T05:57:52;66161.50;;;7.16;45.70
6835;BME280;3455;42.150;24.734;2023-02-02T06:00:20;66168.31;;;7.11;46.70
6835;BME280;3455;42.150;24.734;2023-02-02T06:02:47;66125.66;;;6.98;46.45
6835;BME280;3455;42.150;24.734;2023-02-02T06:05:14;66146.66;;;7.08;46.43
6835;BME280;3455;42.150;24.734;2023-02-02T06:07:41;66146.28;;;7.23;45.97
6835;BME280;3455;42.150;24.734;2023-02-02T06:10:09;66288.66;;;7.35;45.80
6835;BME280;3455;42.150;24.734;2023-02-02T06:12:36;66110.53;;;7.16;45.46
6835;BME280;3455;42.150;24.734;2023-02-02T06:15:03;66159.47;;;7.41;45.55
6835;BME280;3455;42.150;24.734;2023-02-02T06:17:30;66193.31;;;7.67;44.87
6835;BME280;3455;42.150;24.734;2023-02-02T06:19:57;66239.00;;;7.76;44.32
6835;BME280;3455;42.150;24.734;2023-02-02T06:22:24;66214.34;;;7.95;44.39
6835;BME280;3455;42.150;24.734;2023-02-02T06:24:50;66244.31;;;8.22;44.15
6835;BME280;3455;42.150;24.734;2023-02-02T06:27:20;66273.59;;;8.43;44.10
6835;BME280;3455;42.150;24.734;2023-02-02T06:29:46;66246.19;;;8.28;43.87
6835;BME280;3455;42.150;24.734;2023-02-02T06:32:13;66289.59;;;8.35;42.96
6835;BME280;3455;42.150;24.734;2023-02-02T06:34:40;66288.75;;;8.43;42.92
6835;BME280;3455;42.150;24.734;2023-02-02T06:37:07;66289.97;;;8.55;42.45
6835;BME280;3455;42.150;24.734;2023-02-02T06:39:33;66327.69;;;8.69;42.01
6835;BME280;3455;42.150;24.734;2023-02-02T06:42:00;66320.59;;;8.76;42.67
6835;BME280;3455;42.150;24.734;2023-02-02T06:44:28;66381.75;;;9.30;41.52
6835;BME280;3455;42.150;24.734;2023-02-02T06:46:55;66570.69;;;11.61;37.79
6835;BME280;3455;42.150;24.734;2023-02-02T06:49:22;66821.03;;;13.79;33.47
6835;BME280;3455;42.150;24.734;2023-02-02T06:51:48;66926.91;;;15.13;30.98
6835;BME280;3455;42.150;24.734;2023-02-02T06:54:15;67132.91;;;16.78;28.94
6835;BME280;3455;42.150;24.734;2023-02-02T06:56:42;67124.97;;;16.80;27.41
6835;BME280;3455;42.150;24.734;2023-02-02T06:59:08;67223.78;;;17.44;27.27
6835;BME280;3455;42.150;24.734;2023-02-02T07:01:36;67051.81;;;15.88;28.58
6835;BME280;3455;42.150;24.734;2023-02-02T07:04:03;66967.81;;;15.41;29.38
6835;BME280;3455;42.150;24.734;2023-02-02T07:06:30;67021.53;;;15.79;28.93
6835;BME280;3455;42.150;24.734;2023-02-02T07:08:57;66794.19;;;13.69;31.65
6835;BME280;3455;42.150;24.734;2023-02-02T07:11:23;66804.72;;;13.60;32.35
6835;BME280;3455;42.150;24.734;2023-02-02T07:13:50;67137.94;;;16.73;28.55
6835;BME280;3455;42.150;24.734;2023-02-02T07:16:17;66927.72;;;15.01;29.96
6835;BME280;3455;42.150;24.734;2023-02-02T07:18:45;66900.75;;;14.63;30.81
6835;BME280;3455;42.150;24.734;2023-02-02T07:21:18;67057.44;;;16.33;28.97
6835;BME280;3455;42.150;24.734;2023-02-02T07:23:46;67225.44;;;17.68;27.29
6835;BME280;3455;42.150;24.734;2023-02-02T07:26:13;67375.97;;;19.01;25.20
6835;BME280;3455;42.150;24.734;2023-02-02T07:28:41;67379.44;;;18.77;25.59
6835;BME280;3455;42.150;24.734;2023-02-02T07:31:14;67392.84;;;19.16;24.72
6835;BME280;3455;42.150;24.734;2023-02-02T07:33:42;67463.03;;;19.69;24.16
6835;BME280;3455;42.150;24.734;2023-02-02T07:36:11;67495.38;;;20.00;23.65
6835;BME280;3455;42.150;24.734;2023-02-02T07:38:38;67616.09;;;20.99;23.24
6835;BME280;3455;42.150;24.734;2023-02-02T07:41:05;67554.00;;;20.58;23.01
6835;BME280;3455;42.150;24.734;2023-02-02T07:43:32;67602.38;;;21.01;22.11
6835;BME280;3455;42.150;24.734;2023-02-02T07:45:59;67355.28;;;19.08;24.64
6835;BME280;3455;42.150;24.734;2023-02-02T07:48:28;67591.13;;;20.82;23.08
6835;BME280;3455;42.150;24.734;2023-02-02T07:50:58;67790.81;;;22.44;21.52
6835;BME280;3455;42.150;24.734;2023-02-02T07:53:26;67831.09;;;22.80;20.95
6835;BME280;3455;42.150;24.734;2023-02-02T07:55:53;67580.16;;;20.77;22.20
6835;BME280;3455;42.150;24.734;2023-02-02T07:58:29;67341.94;;;19.12;23.68
6835;BME280;3455;42.150;24.734;2023-02-02T08:00:59;67278.28;;;18.70;24.45
6835;BME280;3455;42.150;24.734;2023-02-02T08:03:26;67099.41;;;17.18;26.21
6835;BME280;3455;42.150;24.734;2023-02-02T08:05:53;67005.50;;;15.74;27.50
6835;BME280;3455;42.150;24.734;2023-02-02T08:08:19;66911.16;;;14.84;29.39
6835;BME280;3455;42.150;24.734;2023-02-02T08:10:48;66936.53;;;15.63;28.87
6835;BME280;3455;42.150;24.734;2023-02-02T08:13:15;67227.69;;;17.93;25.91
6835;BME280;3455;42.150;24.734;2023-02-02T08:15:41;67432.16;;;19.69;24.26
6835;BME280;3455;42.150;24.734;2023-02-02T08:18:08;67695.53;;;21.78;22.37
6835;BME280;3455;42.150;24.734;2023-02-02T08:20:35;67797.66;;;22.73;20.76
6835;BME280;3455;42.150;24.734;2023-02-02T08:23:02;67418.09;;;19.79;23.07
6835;BME280;3455;42.150;24.734;2023-02-02T08:25:28;67301.25;;;18.49;24.31
6835;BME280;3455;42.150;24.734;2023-02-02T08:27:57;67198.50;;;17.74;25.07
6835;BME280;3455;42.150;24.734;2023-02-02T08:30:25;67206.25;;;17.51;26.45
6835;BME280;3455;42.150;24.734;2023-02-02T08:32:52;67299.72;;;18.84;24.32
6835;BME280;3455;42.150;24.734;2023-02-02T08:35:19;67555.88;;;20.80;22.54
6835;BME280;3455;42.150;24.734;2023-02-02T08:37:46;67748.50;;;22.52;21.68
6835;BME280;3455;42.150;24.734;2023-02-02T08:40:13;67916.41;;;23.59;20.61
6835;BME280;3455;42.150;24.734;2023-02-02T08:42:40;68098.19;;;24.87;19.88
6835;BME280;3455;42.150;24.734;2023-02-02T08:45:09;68090.53;;;25.12;18.25
6835;BME280;3455;42.150;24.734;2023-02-02T08:47:36;68141.56;;;25.30;18.35
6835;BME280;3455;42.150;24.734;2023-02-02T08:50:03;67965.78;;;24.21;19.26
6835;BME280;3455;42.150;24.734;2023-02-02T08:52:30;68046.41;;;24.92;18.08
6835;BME280;3455;42.150;24.734;2023-02-02T08:54:57;68258.75;;;26.41;17.29
6835;BME280;3455;42.150;24.734;2023-02-02T08:57:24;68213.50;;;26.09;17.53
6835;BME280;3455;42.150;24.734;2023-02-02T08:59:52;68298.66;;;26.45;17.15
6835;BME280;3455;42.150;24.734;2023-02-02T09:02:20;68181.25;;;25.76;17.62
6835;BME280;3455;42.150;24.734;2023-02-02T09:04:47;68042.50;;;24.81;18.18
6835;BME280;3455;42.150;24.734;2023-02-02T09:07:14;68029.09;;;24.54;18.10
6835;BME280;3455;42.150;24.734;2023-02-02T09:09:40;68364.44;;;27.11;16.85
6835;BME280;3455;42.150;24.734;2023-02-02T09:12:07;68480.94;;;28.00;15.66
6835;BME280;3455;42.150;24.734;2023-02-02T09:14:34;68372.94;;;27.37;16.08
6835;BME280;3455;42.150;24.734;2023-02-02T09:17:01;68511.38;;;27.85;15.95
6835;BME280;3455;42.150;24.734;2023-02-02T09:19:29;68628.03;;;28.73;15.02
6835;BME280;3455;42.150;24.734;2023-02-02T09:21:55;68461.25;;;28.01;15.64
6835;BME280;3455;42.150;24.734;2023-02-02T09:24:22;68651.47;;;28.32;15.24
6835;BME280;3455;42.150;24.734;2023-02-02T09:26:49;68468.00;;;27.88;16.39
6835;BME280;3455;42.150;24.734;2023-02-02T09:29:16;68587.00;;;28.63;15.47
6835;BME280;3455;42.150;24.734;2023-02-02T09:31:43;68791.19;;;29.98;14.23
6835;BME280;3455;42.150;24.734;2023-02-02T09:34:12;68670.66;;;28.92;15.28
6835;BME280;3455;42.150;24.734;2023-02-02T09:36:41;68755.19;;;29.98;14.60
6835;BME280;3455;42.150;24.734;2023-02-02T09:39:10;68459.00;;;27.67;15.57
6835;BME280;3455;42.150;24.734;2023-02-02T09:41:58;68311.34;;;26.78;15.93
6835;BME280;3455;42.150;24.734;2023-02-02T09:44:42;68310.91;;;26.51;16.67
6835;BME280;3455;42.150;24.734;2023-02-02T09:47:17;68216.25;;;26.18;17.02
6835;BME280;3455;42.150;24.734;2023-02-02T09:49:53;68120.94;;;25.39;17.71
6835;BME280;3455;42.150;24.734;2023-02-02T09:52:27;68113.00;;;25.30;17.78
6835;BME280;3455;42.150;24.734;2023-02-02T09:54:58;68299.72;;;26.57;16.77
6835;BME280;3455;42.150;24.734;2023-02-02T09:57:32;68432.75;;;27.53;15.73
6835;BME280;3455;42.150;24.734;2023-02-02T10:00:03;68434.13;;;27.68;16.47
6835;BME280;3455;42.150;24.734;2023-02-02T10:02:36;68404.69;;;27.33;16.08
6835;BME280;3455;42.150;24.734;2023-02-02T10:05:07;68283.91;;;27.00;16.26
6835;BME280;3455;42.150;24.734;2023-02-02T10:07:42;68404.25;;;27.42;15.72
6835;BME280;3455;42.150;24.734;2023-02-02T10:10:14;68440.84;;;27.51;17.05
6835;BME280;3455;42.150;24.734;2023-02-02T10:12:48;68400.13;;;27.38;16.54
6835;BME280;3455;42.150;24.734;2023-02-02T10:15:25;68712.41;;;29.29;15.20
6835;BME280;3455;42.150;24.734;2023-02-02T10:18:01;68731.22;;;29.45;15.15
6835;BME280;3455;42.150;24.734;2023-02-02T10:20:36;68698.56;;;29.35;15.21
6835;BME280;3455;42.150;24.734;2023-02-02T10:23:12;68759.41;;;29.70;15.13
6835;BME280;3455;42.150;24.734;2023-02-02T10:25:47;68618.31;;;28.83;15.29
6835;BME280;3455;42.150;24.734;2023-02-02T10:28:29;68284.16;;;26.77;15.52
6835;BME280;3455;42.150;24.734;2023-02-02T10:31:00;68272.03;;;26.39;16.43
6835;BME280;3455;42.150;24.734;2023-02-02T10:33:34;68213.16;;;26.22;16.25
6835;BME280;3455;42.150;24.734;2023-02-02T10:36:09;68265.03;;;26.74;15.76
6835;BME280;3455;42.150;24.734;2023-02-02T10:38:46;68232.25;;;26.46;16.10
6835;BME280;3455;42.150;24.734;2023-02-02T10:41:21;68139.63;;;25.35;17.01
6835;BME280;3455;42.150;24.734;2023-02-02T10:44:01;68442.06;;;27.56;15.39
6835;BME280;3455;42.150;24.734;2023-02-02T10:46:34;68191.56;;;26.08;16.74
6835;BME280;3455;42.150;24.734;2023-02-02T10:49:23;68136.16;;;25.52;16.86
6835;BME280;3455;42.150;24.734;2023-02-02T10:51:55;67859.41;;;23.39;18.32
6835;BME280;3455;42.150;24.734;2023-02-02T10:54:50;67970.34;;;24.36;18.06
6835;BME280;3455;42.150;24.734;2023-02-02T10:57:25;67914.38;;;23.76;18.13
6835;BME280;3455;42.150;24.734;2023-02-02T11:00:03;68169.19;;;25.79;17.79
6835;BME280;3455;42.150;24.734;2023-02-02T11:02:30;68010.19;;;24.60;17.61
6835;BME280;3455;42.150;24.734;2023-02-02T11:04:58;67919.94;;;23.99;18.40
6835;BME280;3455;42.150;24.734;2023-02-02T11:07:42;68095.78;;;23.85;18.99
6835;BME280;3455;42.150;24.734;2023-02-02T11:10:10;68207.63;;;25.83;17.81
6835;BME280;3455;42.150;24.734;2023-02-02T11:12:41;68340.59;;;26.84;16.04
6835;BME280;3455;42.150;24.734;2023-02-02T11:15:24;68244.84;;;26.38;16.36
6835;BME280;3455;42.150;24.734;2023-02-02T11:17:51;68253.28;;;26.23;16.43
6835;BME280;3455;42.150;24.734;2023-02-02T11:20:23;68341.84;;;27.10;16.31
6835;BME280;3455;42.150;24.734;2023-02-02T11:23:00;68438.44;;;27.85;15.57
6835;BME280;3455;42.150;24.734;2023-02-02T11:25:32;68497.97;;;27.78;15.80
6835;BME280;3455;42.150;24.734;2023-02-02T11:28:00;68636.91;;;29.06;14.91
6835;BME280;3455;42.150;24.734;2023-02-02T11:30:37;68571.94;;;28.43;15.08
6835;BME280;3455;42.150;24.734;2023-02-02T11:33:19;68634.19;;;28.97;15.02
6835;BME280;3455;42.150;24.734;2023-02-02T11:35:52;68766.50;;;29.76;15.38
6835;BME280;3455;42.150;24.734;2023-02-02T11:38:19;68976.69;;;31.23;13.62
6835;BME280;3455;42.150;24.734;2023-02-02T11:40:52;68904.44;;;30.74;12.92
6835;BME280;3455;42.150;24.734;2023-02-02T11:43:25;68167.78;;;26.21;15.62
6835;BME280;3455;42.150;24.734;2023-02-02T11:45:55;68121.09;;;25.48;15.99
6835;BME280;3455;42.150;24.734;2023-02-02T11:48:27;68267.09;;;26.58;15.35
6835;BME280;3455;42.150;24.734;2023-02-02T11:50:56;68258.25;;;26.46;15.29
6835;BME280;3455;42.150;24.734;2023-02-02T11:53:25;68074.44;;;25.16;16.56
6835;BME280;3455;42.150;24.734;2023-02-02T11:55:55;67940.13;;;24.19;17.14
6835;BME280;3455;42.150;24.734;2023-02-02T11:58:25;68012.50;;;24.62;16.64
6835;BME280;3455;42.150;24.734;2023-02-02T12:00:57;67873.31;;;23.62;17.09
6835;BME280;3455;42.150;24.734;2023-02-02T12:03:30;67716.34;;;22.35;18.26
6835;BME280;3455;42.150;24.734;2023-02-02T12:05:58;67784.81;;;22.62;18.15
6835;BME280;3455;42.150;24.734;2023-02-02T12:08:27;67571.69;;;21.15;18.69
6835;BME280;3455;42.150;24.734;2023-02-02T12:10:59;67481.44;;;20.63;19.69
6835;BME280;3455;42.150;24.734;2023-02-02T12:13:46;67346.63;;;19.64;21.22
6835;BME280;3455;42.150;24.734;2023-02-02T12:16:30;67307.03;;;19.09;21.60
6835;BME280;3455;42.150;24.734;2023-02-02T12:19:08;67434.72;;;20.12;20.76
6835;BME280;3455;42.150;24.734;2023-02-02T12:21:46;67587.09;;;21.10;19.61
6835;BME280;3455;42.150;24.734;2023-02-02T12:24:28;67371.91;;;19.57;20.22
6835;BME280;3455;42.150;24.734;2023-02-02T12:27:06;67306.63;;;19.01;21.08
6835;BME280;3455;42.150;24.734;2023-02-02T12:29:47;67415.44;;;19.91;20.58
6835;BME280;3455;42.150;24.734;2023-02-02T12:32:31;67448.81;;;20.02;20.89
6835;BME280;3455;42.150;24.734;2023-02-02T12:35:17;67295.41;;;18.98;21.64
6835;BME280;3455;42.150;24.734;2023-02-02T12:37:55;67129.38;;;17.51;22.98
6835;BME280;3455;42.150;24.734;2023-02-02T12:40:40;67182.31;;;18.03;23.08
6835;BME280;3455;42.150;24.734;2023-02-02T12:43:22;67153.75;;;17.73;22.98
6835;BME280;3455;42.150;24.734;2023-02-02T12:46:05;67099.97;;;17.19;23.25
6835;BME280;3455;42.150;24.734;2023-02-02T12:49:03;67005.91;;;16.69;24.00
6835;BME280;3455;42.150;24.734;2023-02-02T12:51:44;67081.84;;;17.09;23.70
6835;BME280;3455;42.150;24.734;2023-02-02T12:54:36;67086.34;;;16.82;23.63
6835;BME280;3455;42.150;24.734;2023-02-02T12:57:14;67131.19;;;17.15;23.36
6835;BME280;3455;42.150;24.734;2023-02-02T13:00:03;67160.53;;;17.70;22.29
6835;BME280;3455;42.150;24.734;2023-02-02T13:02:37;67148.81;;;17.82;22.16
6835;BME280;3455;42.150;24.734;2023-02-02T13:05:23;67081.38;;;17.13;22.49
6835;BME280;3455;42.150;24.734;2023-02-02T13:07:55;67031.69;;;16.79;23.29
6835;BME280;3455;42.150;24.734;2023-02-02T13:10:27;67010.72;;;16.28;23.79
6835;BME280;3455;42.150;24.734;2023-02-02T13:12:58;66946.00;;;15.91;24.89
6835;BME280;3455;42.150;24.734;2023-02-02T13:15:31;66936.66;;;15.67;24.81
6835;BME280;3455;42.150;24.734;2023-02-02T13:18:01;66968.16;;;15.54;25.46
6835;BME280;3455;42.150;24.734;2023-02-02T13:20:40;66893.22;;;15.29;25.53
6835;BME280;3455;42.150;24.734;2023-02-02T13:23:11;66919.84;;;15.52;25.62
6835;BME280;3455;42.150;24.734;2023-02-02T13:25:43;67027.03;;;16.47;24.45
6835;BME280;3455;42.150;24.734;2023-02-02T13:28:18;67016.13;;;16.42;24.66
6835;BME280;3455;42.150;24.734;2023-02-02T13:30:49;67193.63;;;17.99;23.57
6835;BME280;3455;42.150;24.734;2023-02-02T13:33:22;67264.94;;;18.58;22.41
6835;BME280;3455;42.150;24.734;2023-02-02T13:35:53;67113.94;;;17.20;23.86
6835;BME280;3455;42.150;24.734;2023-02-02T13:38:22;67094.22;;;17.02;24.21
6835;BME280;3455;42.150;24.734;2023-02-02T13:40:51;67170.88;;;17.75;22.99